Decoded Metar for KMSS (MASSENA in NY, USA) (IATA:MSS) | Meteo·Mobile Aviation Weather
aviador You're here:

KMSS Decoded Metar

MASSENA in NY, USA
Report Time2019-09-21 01:53:00
UTC Time2019-09-21 02:37:57
Flight Rules vfr VFR
Wind220° at 04 kt
W.Decomp.*RWY 23: 4.0 kt HW 0.3 kt RCW
RWY 27: 3.2 kt HW 2.4 kt LCW
Visibility9999 m
Phenomena:N/A
Clouds:N/A
Expected CloudBase > 2,000 ft AGL from Temp-Dew spread
CeilingNone
Temp17°C (ISA +2)
Dew Point12°C (73% RH)
AAT16.2°C
QNH1022 hPa
Density Alt390 ft
Elevation217 ft
Report Wrong Elevation
Raw Report
KMSS 210153Z AUTO 22004KT 10SM CLR 17/12 A3017 RMK AO2 SLP217
T01720117=

Extra information for KMSS:More info

Metar Taf Metar & Taf Last 4 Metars F.Rules Stats Wind Profile Meteogram Temp Stats Airport Information Weather charts Add Link Nearby VenuesMetar ALERT Operation Metar Decoded Social comments

AIRNAV info for KMSS